sensor_id;sensor_type;location;lat;lon;timestamp;pressure;altitude;pressure_sealevel;temperature;humidity
36630;BME280;36256;42.154;23.002;2023-04-21T00:00:51;96836.13;;;10.32;100.00
36630;BME280;36256;42.154;23.002;2023-04-21T00:03:18;96839.41;;;10.39;100.00
36630;BME280;36256;42.154;23.002;2023-04-21T00:05:49;96838.34;;;10.46;100.00
36630;BME280;36256;42.154;23.002;2023-04-21T00:08:16;96834.34;;;10.56;99.80
36630;BME280;36256;42.154;23.002;2023-04-21T00:10:43;96832.00;;;10.63;99.52
36630;BME280;36256;42.154;23.002;2023-04-21T00:13:10;96838.38;;;10.64;98.48
36630;BME280;36256;42.154;23.002;2023-04-21T00:15:36;96829.50;;;10.65;98.43
36630;BME280;36256;42.154;23.002;2023-04-21T00:18:03;96829.34;;;10.69;99.66
36630;BME280;36256;42.154;23.002;2023-04-21T00:20:30;96829.84;;;10.76;99.29
36630;BME280;36256;42.154;23.002;2023-04-21T00:22:57;96829.06;;;10.85;98.38
36630;BME280;36256;42.154;23.002;2023-04-21T00:25:24;96827.78;;;10.68;97.76
36630;BME280;36256;42.154;23.002;2023-04-21T00:27:51;96827.44;;;10.48;98.41
36630;BME280;36256;42.154;23.002;2023-04-21T00:30:17;96825.72;;;10.32;99.41
36630;BME280;36256;42.154;23.002;2023-04-21T00:32:44;96831.41;;;10.10;100.00
36630;BME280;36256;42.154;23.002;2023-04-21T00:35:10;96831.47;;;9.98;100.00
36630;BME280;36256;42.154;23.002;2023-04-21T00:37:37;96834.13;;;9.92;100.00
36630;BME280;36256;42.154;23.002;2023-04-21T00:40:03;96832.16;;;9.80;100.00
36630;BME280;36256;42.154;23.002;2023-04-21T00:42:30;96830.78;;;9.85;100.00
36630;BME280;36256;42.154;23.002;2023-04-21T00:44:57;96833.75;;;9.81;100.00
36630;BME280;36256;42.154;23.002;2023-04-21T00:47:23;96830.53;;;9.92;100.00
36630;BME280;36256;42.154;23.002;2023-04-21T00:49:50;96827.25;;;9.93;100.00
36630;BME280;36256;42.154;23.002;2023-04-21T00:52:17;96819.94;;;9.96;99.46
36630;BME280;36256;42.154;23.002;2023-04-21T00:54:43;96826.03;;;9.94;99.95
36630;BME280;36256;42.154;23.002;2023-04-21T00:57:10;96821.19;;;9.95;99.75
36630;BME280;36256;42.154;23.002;2023-04-21T00:59:37;96823.53;;;9.96;98.59
36630;BME280;36256;42.154;23.002;2023-04-21T01:02:03;96818.38;;;9.95;98.72
36630;BME280;36256;42.154;23.002;2023-04-21T01:04:30;96810.38;;;9.75;98.80
36630;BME280;36256;42.154;23.002;2023-04-21T01:07:04;96827.22;;;9.84;99.21
36630;BME280;36256;42.154;23.002;2023-04-21T01:09:31;96828.63;;;9.89;98.82
36630;BME280;36256;42.154;23.002;2023-04-21T01:12:04;96824.59;;;9.90;98.86
36630;BME280;36256;42.154;23.002;2023-04-21T01:14:31;96823.97;;;9.86;99.29
36630;BME280;36256;42.154;23.002;2023-04-21T01:16:58;96830.84;;;9.94;98.62
36630;BME280;36256;42.154;23.002;2023-04-21T01:19:25;96826.44;;;9.84;98.45
36630;BME280;36256;42.154;23.002;2023-04-21T01:21:53;96830.75;;;9.76;100.00
36630;BME280;36256;42.154;23.002;2023-04-21T01:24:23;96821.28;;;9.73;100.00
36630;BME280;36256;42.154;23.002;2023-04-21T01:26:52;96825.28;;;9.72;100.00
36630;BME280;36256;42.154;23.002;2023-04-21T01:29:19;96830.00;;;9.75;99.94
36630;BME280;36256;42.154;23.002;2023-04-21T01:31:46;96824.97;;;9.70;98.78
36630;BME280;36256;42.154;23.002;2023-04-21T01:34:13;96830.53;;;9.61;100.00
36630;BME280;36256;42.154;23.002;2023-04-21T01:36:39;96822.59;;;9.60;100.00
36630;BME280;36256;42.154;23.002;2023-04-21T01:39:06;96827.56;;;9.56;99.75
36630;BME280;36256;42.154;23.002;2023-04-21T01:41:33;96818.97;;;9.50;100.00
36630;BME280;36256;42.154;23.002;2023-04-21T01:43:59;96828.59;;;9.49;99.78
36630;BME280;36256;42.154;23.002;2023-04-21T01:46:26;96825.78;;;9.49;99.21
36630;BME280;36256;42.154;23.002;2023-04-21T01:48:53;96834.84;;;9.53;99.04
36630;BME280;36256;42.154;23.002;2023-04-21T01:51:19;96833.41;;;9.48;99.09
36630;BME280;36256;42.154;23.002;2023-04-21T01:53:46;96831.88;;;9.47;98.53
36630;BME280;36256;42.154;23.002;2023-04-21T01:56:13;96838.38;;;9.44;98.61
36630;BME280;36256;42.154;23.002;2023-04-21T01:58:40;96840.19;;;9.38;98.75
36630;BME280;36256;42.154;23.002;2023-04-21T02:01:06;96839.56;;;9.34;99.00
36630;BME280;36256;42.154;23.002;2023-04-21T02:03:33;96842.19;;;9.29;99.17
36630;BME280;36256;42.154;23.002;2023-04-21T02:06:00;96833.25;;;9.21;100.00
36630;BME280;36256;42.154;23.002;2023-04-21T02:08:26;96839.16;;;9.23;99.96
36630;BME280;36256;42.154;23.002;2023-04-21T02:10:53;96832.91;;;9.19;99.84
36630;BME280;36256;42.154;23.002;2023-04-21T02:13:19;96832.84;;;9.10;100.00
36630;BME280;36256;42.154;23.002;2023-04-21T02:15:46;96837.53;;;9.13;100.00
36630;BME280;36256;42.154;23.002;2023-04-21T02:18:12;96829.41;;;9.06;99.20
36630;BME280;36256;42.154;23.002;2023-04-21T02:20:40;96839.19;;;9.02;99.25
36630;BME280;36256;42.154;23.002;2023-04-21T02:23:06;96832.78;;;9.01;99.89
36630;BME280;36256;42.154;23.002;2023-04-21T02:25:33;96837.59;;;9.01;100.00
36630;BME280;36256;42.154;23.002;2023-04-21T02:27:59;96831.22;;;9.00;99.84
36630;BME280;36256;42.154;23.002;2023-04-21T02:30:26;96837.75;;;8.97;98.85
36630;BME280;36256;42.154;23.002;2023-04-21T02:32:52;96830.38;;;8.91;98.69
36630;BME280;36256;42.154;23.002;2023-04-21T02:35:19;96832.41;;;8.90;99.51
36630;BME280;36256;42.154;23.002;2023-04-21T02:37:46;96836.41;;;8.89;98.28
36630;BME280;36256;42.154;23.002;2023-04-21T02:40:12;96828.63;;;8.84;99.46
36630;BME280;36256;42.154;23.002;2023-04-21T02:42:39;96833.44;;;8.84;99.20
36630;BME280;36256;42.154;23.002;2023-04-21T02:45:05;96836.94;;;8.75;98.78
36630;BME280;36256;42.154;23.002;2023-04-21T02:47:32;96836.13;;;8.75;100.00
36630;BME280;36256;42.154;23.002;2023-04-21T02:49:58;96844.09;;;8.76;99.56
36630;BME280;36256;42.154;23.002;2023-04-21T02:52:25;96841.06;;;8.70;99.16
36630;BME280;36256;42.154;23.002;2023-04-21T02:54:52;96836.97;;;8.62;98.78
36630;BME280;36256;42.154;23.002;2023-04-21T02:57:18;96842.69;;;8.59;99.41
36630;BME280;36256;42.154;23.002;2023-04-21T02:59:45;96841.72;;;8.53;100.00
36630;BME280;36256;42.154;23.002;2023-04-21T03:02:11;96848.19;;;8.50;100.00
36630;BME280;36256;42.154;23.002;2023-04-21T03:04:38;96847.53;;;8.46;100.00
36630;BME280;36256;42.154;23.002;2023-04-21T03:07:04;96838.16;;;8.40;100.00
36630;BME280;36256;42.154;23.002;2023-04-21T03:09:31;96845.44;;;8.37;100.00
36630;BME280;36256;42.154;23.002;2023-04-21T03:11:57;96846.31;;;8.34;100.00
36630;BME280;36256;42.154;23.002;2023-04-21T03:14:24;96849.38;;;8.27;100.00
36630;BME280;36256;42.154;23.002;2023-04-21T03:16:50;96848.44;;;8.18;100.00
36630;BME280;36256;42.154;23.002;2023-04-21T03:19:17;96852.03;;;8.06;100.00
36630;BME280;36256;42.154;23.002;2023-04-21T03:21:44;96850.56;;;8.01;100.00
36630;BME280;36256;42.154;23.002;2023-04-21T03:24:10;96848.78;;;7.94;100.00
36630;BME280;36256;42.154;23.002;2023-04-21T03:26:39;96848.69;;;7.85;100.00
36630;BME280;36256;42.154;23.002;2023-04-21T03:29:06;96856.03;;;7.79;100.00
36630;BME280;36256;42.154;23.002;2023-04-21T03:31:32;96859.19;;;7.81;100.00
36630;BME280;36256;42.154;23.002;2023-04-21T03:33:59;96849.47;;;7.86;100.00
36630;BME280;36256;42.154;23.002;2023-04-21T03:36:25;96844.88;;;7.79;100.00
36630;BME280;36256;42.154;23.002;2023-04-21T03:38:52;96857.50;;;7.84;100.00
36630;BME280;36256;42.154;23.002;2023-04-21T03:41:18;96851.81;;;7.87;100.00
36630;BME280;36256;42.154;23.002;2023-04-21T03:43:45;96851.72;;;7.91;100.00
36630;BME280;36256;42.154;23.002;2023-04-21T03:46:18;96858.75;;;7.96;100.00
36630;BME280;36256;42.154;23.002;2023-04-21T03:48:45;96866.69;;;7.97;100.00
36630;BME280;36256;42.154;23.002;2023-04-21T03:51:12;96873.72;;;8.02;100.00
36630;BME280;36256;42.154;23.002;2023-04-21T03:53:38;96875.50;;;7.96;100.00
36630;BME280;36256;42.154;23.002;2023-04-21T03:56:05;96877.06;;;7.97;100.00
36630;BME280;36256;42.154;23.002;2023-04-21T03:58:32;96878.63;;;7.98;100.00
36630;BME280;36256;42.154;23.002;2023-04-21T04:00:59;96880.84;;;8.03;100.00
36630;BME280;36256;42.154;23.002;2023-04-21T04:03:26;96879.31;;;8.02;100.00
36630;BME280;36256;42.154;23.002;2023-04-21T04:05:52;96889.81;;;7.98;100.00
36630;BME280;36256;42.154;23.002;2023-04-21T04:08:19;96888.81;;;8.04;100.00
36630;BME280;36256;42.154;23.002;2023-04-21T04:10:46;96884.56;;;8.00;100.00
36630;BME280;36256;42.154;23.002;2023-04-21T04:13:12;96887.03;;;7.98;100.00
36630;BME280;36256;42.154;23.002;2023-04-21T04:15:38;96890.69;;;7.94;100.00
36630;BME280;36256;42.154;23.002;2023-04-21T04:18:05;96897.84;;;7.96;100.00
36630;BME280;36256;42.154;23.002;2023-04-21T04:20:32;96904.13;;;8.00;100.00
36630;BME280;36256;42.154;23.002;2023-04-21T04:22:58;96901.31;;;8.00;100.00
36630;BME280;36256;42.154;23.002;2023-04-21T04:25:24;96904.78;;;8.04;100.00
36630;BME280;36256;42.154;23.002;2023-04-21T04:27:52;96910.38;;;8.04;100.00
36630;BME280;36256;42.154;23.002;2023-04-21T04:30:18;96907.25;;;8.02;100.00
36630;BME280;36256;42.154;23.002;2023-04-21T04:32:45;96911.25;;;8.01;100.00
36630;BME280;36256;42.154;23.002;2023-04-21T04:35:12;96917.41;;;7.96;100.00
36630;BME280;36256;42.154;23.002;2023-04-21T04:37:38;96913.03;;;7.94;100.00
36630;BME280;36256;42.154;23.002;2023-04-21T04:40:06;96914.03;;;7.88;100.00
36630;BME280;36256;42.154;23.002;2023-04-21T04:42:37;96922.41;;;7.88;100.00
36630;BME280;36256;42.154;23.002;2023-04-21T04:45:05;96918.16;;;7.83;100.00
36630;BME280;36256;42.154;23.002;2023-04-21T04:47:34;96924.47;;;7.87;100.00
36630;BME280;36256;42.154;23.002;2023-04-21T04:50:00;96919.97;;;7.90;100.00
36630;BME280;36256;42.154;23.002;2023-04-21T04:52:27;96923.34;;;7.98;100.00
36630;BME280;36256;42.154;23.002;2023-04-21T04:54:53;96916.97;;;7.97;100.00
36630;BME280;36256;42.154;23.002;2023-04-21T04:57:19;96919.97;;;8.03;100.00
36630;BME280;36256;42.154;23.002;2023-04-21T04:59:46;96924.47;;;8.13;100.00
36630;BME280;36256;42.154;23.002;2023-04-21T05:02:12;96916.28;;;8.18;100.00
36630;BME280;36256;42.154;23.002;2023-04-21T05:04:39;96915.28;;;8.25;100.00
36630;BME280;36256;42.154;23.002;2023-04-21T05:07:06;96916.31;;;8.31;100.00
36630;BME280;36256;42.154;23.002;2023-04-21T05:09:33;96918.91;;;8.38;100.00
36630;BME280;36256;42.154;23.002;2023-04-21T05:11:59;96907.38;;;8.36;100.00
36630;BME280;36256;42.154;23.002;2023-04-21T05:14:26;96914.63;;;8.46;100.00
36630;BME280;36256;42.154;23.002;2023-04-21T05:16:53;96912.84;;;8.52;100.00
36630;BME280;36256;42.154;23.002;2023-04-21T05:19:19;96910.38;;;8.54;100.00
36630;BME280;36256;42.154;23.002;2023-04-21T05:21:46;96913.19;;;8.41;100.00
36630;BME280;36256;42.154;23.002;2023-04-21T05:24:12;96910.84;;;8.40;100.00
36630;BME280;36256;42.154;23.002;2023-04-21T05:26:39;96912.84;;;8.52;100.00
36630;BME280;36256;42.154;23.002;2023-04-21T05:29:05;96922.22;;;8.58;100.00
36630;BME280;36256;42.154;23.002;2023-04-21T05:31:32;96911.94;;;8.55;100.00
36630;BME280;36256;42.154;23.002;2023-04-21T05:33:58;96921.66;;;8.63;100.00
36630;BME280;36256;42.154;23.002;2023-04-21T05:36:25;96914.72;;;8.67;100.00
36630;BME280;36256;42.154;23.002;2023-04-21T05:38:53;96922.66;;;8.69;100.00
36630;BME280;36256;42.154;23.002;2023-04-21T05:41:20;96926.88;;;8.86;100.00
36630;BME280;36256;42.154;23.002;2023-04-21T05:43:47;96921.69;;;8.97;100.00
36630;BME280;36256;42.154;23.002;2023-04-21T05:46:14;96917.81;;;9.16;100.00
36630;BME280;36256;42.154;23.002;2023-04-21T05:48:40;96915.09;;;9.47;100.00
36630;BME280;36256;42.154;23.002;2023-04-21T05:51:10;96911.94;;;9.88;100.00
36630;BME280;36256;42.154;23.002;2023-04-21T05:53:37;96917.66;;;10.46;95.99
36630;BME280;36256;42.154;23.002;2023-04-21T05:56:04;96911.38;;;10.91;91.57
36630;BME280;36256;42.154;23.002;2023-04-21T05:58:32;96916.88;;;11.40;90.20
36630;BME280;36256;42.154;23.002;2023-04-21T06:00:58;96905.94;;;11.78;86.88
36630;BME280;36256;42.154;23.002;2023-04-21T06:03:25;96904.78;;;12.44;83.99
36630;BME280;36256;42.154;23.002;2023-04-21T06:05:52;96898.50;;;13.06;78.14
36630;BME280;36256;42.154;23.002;2023-04-21T06:08:19;96888.19;;;13.26;75.31
36630;BME280;36256;42.154;23.002;2023-04-21T06:10:46;96888.66;;;13.92;74.07
36630;BME280;36256;42.154;23.002;2023-04-21T06:13:12;96893.25;;;14.19;71.44
36630;BME280;36256;42.154;23.002;2023-04-21T06:15:39;96883.66;;;14.60;68.29
36630;BME280;36256;42.154;23.002;2023-04-21T06:18:05;96877.84;;;15.24;67.28
36630;BME280;36256;42.154;23.002;2023-04-21T06:20:32;96868.09;;;15.25;63.96
36630;BME280;36256;42.154;23.002;2023-04-21T06:22:58;96874.91;;;15.79;64.39
36630;BME280;36256;42.154;23.002;2023-04-21T06:25:25;96870.06;;;16.42;61.16
36630;BME280;36256;42.154;23.002;2023-04-21T06:27:51;96861.78;;;16.70;59.16
36630;BME280;36256;42.154;23.002;2023-04-21T06:30:17;96855.56;;;17.08;58.16
36630;BME280;36256;42.154;23.002;2023-04-21T06:32:44;96863.66;;;17.32;56.79
36630;BME280;36256;42.154;23.002;2023-04-21T06:35:14;96856.66;;;17.21;55.71
36630;BME280;36256;42.154;23.002;2023-04-21T06:37:40;96855.69;;;17.36;56.27
36630;BME280;36256;42.154;23.002;2023-04-21T06:40:07;96857.03;;;17.51;55.14
36630;BME280;36256;42.154;23.002;2023-04-21T06:42:33;96853.53;;;17.89;54.90
36630;BME280;36256;42.154;23.002;2023-04-21T06:45:00;96850.19;;;18.35;54.92
36630;BME280;36256;42.154;23.002;2023-04-21T06:47:26;96853.75;;;17.75;54.70
36630;BME280;36256;42.154;23.002;2023-04-21T06:49:53;96863.47;;;17.46;56.12
36630;BME280;36256;42.154;23.002;2023-04-21T06:52:20;96866.78;;;17.34;57.69
36630;BME280;36256;42.154;23.002;2023-04-21T06:54:46;96856.38;;;17.84;56.87
36630;BME280;36256;42.154;23.002;2023-04-21T06:57:13;96864.09;;;17.78;54.41
36630;BME280;36256;42.154;23.002;2023-04-21T06:59:40;96857.66;;;17.94;55.93
36630;BME280;36256;42.154;23.002;2023-04-21T07:02:07;96857.94;;;17.96;54.73
36630;BME280;36256;42.154;23.002;2023-04-21T07:04:33;96855.84;;;17.85;54.43
36630;BME280;36256;42.154;23.002;2023-04-21T07:07:00;96861.78;;;17.82;55.32
36630;BME280;36256;42.154;23.002;2023-04-21T07:09:28;96868.00;;;18.08;54.58
36630;BME280;36256;42.154;23.002;2023-04-21T07:11:56;96863.09;;;18.14;55.14
36630;BME280;36256;42.154;23.002;2023-04-21T07:14:22;96869.34;;;18.51;56.85
36630;BME280;36256;42.154;23.002;2023-04-21T07:16:49;96860.03;;;18.73;53.70
36630;BME280;36256;42.154;23.002;2023-04-21T07:19:15;96867.78;;;18.50;56.11
36630;BME280;36256;42.154;23.002;2023-04-21T07:21:42;96866.75;;;18.20;56.62
36630;BME280;36256;42.154;23.002;2023-04-21T07:24:08;96866.50;;;18.62;55.47
36630;BME280;36256;42.154;23.002;2023-04-21T07:26:35;96854.31;;;18.78;53.68
36630;BME280;36256;42.154;23.002;2023-04-21T07:29:01;96857.06;;;19.17;52.96
36630;BME280;36256;42.154;23.002;2023-04-21T07:31:28;96852.59;;;19.44;51.78
36630;BME280;36256;42.154;23.002;2023-04-21T07:33:54;96846.06;;;18.80;52.95
36630;BME280;36256;42.154;23.002;2023-04-21T07:36:21;96847.63;;;18.48;54.05
36630;BME280;36256;42.154;23.002;2023-04-21T07:38:47;96853.56;;;18.34;54.96
36630;BME280;36256;42.154;23.002;2023-04-21T07:41:14;96853.03;;;18.19;55.91
36630;BME280;36256;42.154;23.002;2023-04-21T07:43:40;96849.66;;;17.76;58.32
36630;BME280;36256;42.154;23.002;2023-04-21T07:46:07;96865.81;;;17.53;59.35
36630;BME280;36256;42.154;23.002;2023-04-21T07:48:34;96867.63;;;17.51;60.02
36630;BME280;36256;42.154;23.002;2023-04-21T07:51:00;96868.03;;;17.33;62.55
36630;BME280;36256;42.154;23.002;2023-04-21T07:53:28;96867.75;;;17.25;62.61
36630;BME280;36256;42.154;23.002;2023-04-21T07:55:55;96867.91;;;17.58;59.76
36630;BME280;36256;42.154;23.002;2023-04-21T07:58:22;96855.88;;;18.13;59.01
36630;BME280;36256;42.154;23.002;2023-04-21T08:00:48;96848.66;;;18.67;56.28
36630;BME280;36256;42.154;23.002;2023-04-21T08:03:15;96839.06;;;18.87;51.60
36630;BME280;36256;42.154;23.002;2023-04-21T08:05:42;96830.44;;;19.15;49.51
36630;BME280;36256;42.154;23.002;2023-04-21T08:08:08;96818.22;;;19.31;50.28
36630;BME280;36256;42.154;23.002;2023-04-21T08:10:35;96811.63;;;19.58;50.71
36630;BME280;36256;42.154;23.002;2023-04-21T08:13:01;96816.22;;;19.72;48.14
36630;BME280;36256;42.154;23.002;2023-04-21T08:15:32;96804.47;;;19.46;48.38
36630;BME280;36256;42.154;23.002;2023-04-21T08:17:59;96802.81;;;19.67;48.33
36630;BME280;36256;42.154;23.002;2023-04-21T08:20:25;96789.69;;;18.85;46.99
36630;BME280;36256;42.154;23.002;2023-04-21T08:22:52;96789.47;;;18.71;48.22
36630;BME280;36256;42.154;23.002;2023-04-21T08:25:18;96788.03;;;19.17;48.11
36630;BME280;36256;42.154;23.002;2023-04-21T08:27:45;96791.88;;;19.25;48.16
36630;BME280;36256;42.154;23.002;2023-04-21T08:30:11;96780.72;;;19.38;47.12
36630;BME280;36256;42.154;23.002;2023-04-21T08:32:38;96780.91;;;19.51;46.71
36630;BME280;36256;42.154;23.002;2023-04-21T08:35:05;96784.25;;;19.49;48.15
36630;BME280;36256;42.154;23.002;2023-04-21T08:37:31;96775.88;;;19.16;48.49
36630;BME280;36256;42.154;23.002;2023-04-21T08:39:58;96771.47;;;19.21;50.23
36630;BME280;36256;42.154;23.002;2023-04-21T08:42:24;96780.97;;;19.40;52.60
36630;BME280;36256;42.154;23.002;2023-04-21T08:44:51;96777.06;;;19.43;47.37
36630;BME280;36256;42.154;23.002;2023-04-21T08:47:17;96775.59;;;19.25;47.43
36630;BME280;36256;42.154;23.002;2023-04-21T08:49:46;96781.56;;;19.16;50.77
36630;BME280;36256;42.154;23.002;2023-04-21T08:52:15;96780.78;;;19.16;47.92
36630;BME280;36256;42.154;23.002;2023-04-21T08:54:42;96787.09;;;19.55;52.26
36630;BME280;36256;42.154;23.002;2023-04-21T08:57:08;96785.66;;;19.78;47.15
36630;BME280;36256;42.154;23.002;2023-04-21T08:59:41;96774.19;;;19.89;50.23
36630;BME280;36256;42.154;23.002;2023-04-21T09:04:42;96767.13;;;19.61;50.65
36630;BME280;36256;42.154;23.002;2023-04-21T09:07:09;96771.94;;;19.77;50.06
36630;BME280;36256;42.154;23.002;2023-04-21T09:09:54;96766.25;;;20.06;49.80
36630;BME280;36256;42.154;23.002;2023-04-21T09:12:20;96764.22;;;20.37;47.67
36630;BME280;36256;42.154;23.002;2023-04-21T09:14:47;96749.50;;;20.32;45.63
36630;BME280;36256;42.154;23.002;2023-04-21T09:17:17;96741.81;;;20.22;45.25
36630;BME280;36256;42.154;23.002;2023-04-21T09:19:43;96737.16;;;19.54;46.13
36630;BME280;36256;42.154;23.002;2023-04-21T09:22:14;96741.31;;;19.53;49.65
36630;BME280;36256;42.154;23.002;2023-04-21T09:24:51;96750.59;;;19.59;48.94
36630;BME280;36256;42.154;23.002;2023-04-21T09:27:22;96728.38;;;19.52;47.44
36630;BME280;36256;42.154;23.002;2023-04-21T09:29:48;96734.22;;;19.24;48.09
36630;BME280;36256;42.154;23.002;2023-04-21T09:32:15;96733.31;;;19.00;49.29
36630;BME280;36256;42.154;23.002;2023-04-21T09:34:42;96736.84;;;19.17;52.63
36630;BME280;36256;42.154;23.002;2023-04-21T09:37:10;96747.84;;;19.42;52.60
36630;BME280;36256;42.154;23.002;2023-04-21T09:39:37;96747.50;;;19.57;52.49
36630;BME280;36256;42.154;23.002;2023-04-21T09:42:31;96732.44;;;19.62;48.61
36630;BME280;36256;42.154;23.002;2023-04-21T09:44:59;96734.44;;;19.32;50.02
36630;BME280;36256;42.154;23.002;2023-04-21T09:47:31;96723.41;;;19.12;50.53
36630;BME280;36256;42.154;23.002;2023-04-21T09:50:01;96726.00;;;19.10;51.66
36630;BME280;36256;42.154;23.002;2023-04-21T09:52:29;96724.41;;;19.20;49.09
36630;BME280;36256;42.154;23.002;2023-04-21T09:55:00;96720.50;;;19.34;51.71
36630;BME280;36256;42.154;23.002;2023-04-21T09:57:30;96724.31;;;19.42;49.00
36630;BME280;36256;42.154;23.002;2023-04-21T10:00:00;96720.94;;;19.43;48.51
36630;BME280;36256;42.154;23.002;2023-04-21T10:02:29;96715.72;;;19.53;47.82
36630;BME280;36256;42.154;23.002;2023-04-21T10:04:56;96707.03;;;19.29;46.92
36630;BME280;36256;42.154;23.002;2023-04-21T10:07:23;96709.84;;;19.40;47.76
36630;BME280;36256;42.154;23.002;2023-04-21T10:09:50;96705.63;;;19.52;47.10
36630;BME280;36256;42.154;23.002;2023-04-21T10:12:21;96695.59;;;19.75;47.61
36630;BME280;36256;42.154;23.002;2023-04-21T10:14:51;96689.63;;;19.79;47.30
36630;BME280;36256;42.154;23.002;2023-04-21T10:17:21;96679.31;;;19.76;49.00
36630;BME280;36256;42.154;23.002;2023-04-21T10:19:57;96681.81;;;19.85;48.58
36630;BME280;36256;42.154;23.002;2023-04-21T10:22:33;96672.41;;;19.95;48.15
36630;BME280;36256;42.154;23.002;2023-04-21T10:25:02;96680.16;;;19.95;49.80
36630;BME280;36256;42.154;23.002;2023-04-21T10:29:58;96669.75;;;19.73;47.70
36630;BME280;36256;42.154;23.002;2023-04-21T10:35:23;96672.06;;;19.45;47.40
36630;BME280;36256;42.154;23.002;2023-04-21T10:37:49;96684.00;;;19.38;47.45
36630;BME280;36256;42.154;23.002;2023-04-21T10:43:40;96681.38;;;19.40;47.76
36630;BME280;36256;42.154;23.002;2023-04-21T10:45:55;96670.19;;;19.47;47.25
36630;BME280;36256;42.154;23.002;2023-04-21T10:48:21;96675.91;;;19.47;47.22
36630;BME280;36256;42.154;23.002;2023-04-21T10:50:48;96667.66;;;19.44;47.44
36630;BME280;36256;42.154;23.002;2023-04-21T10:53:15;96675.75;;;19.29;46.54
36630;BME280;36256;42.154;23.002;2023-04-21T10:55:41;96673.41;;;19.38;47.40
36630;BME280;36256;42.154;23.002;2023-04-21T10:58:14;96667.44;;;19.31;47.12
36630;BME280;36256;42.154;23.002;2023-04-21T11:00:41;96671.91;;;19.21;47.81
36630;BME280;36256;42.154;23.002;2023-04-21T11:03:08;96674.34;;;19.06;46.96
36630;BME280;36256;42.154;23.002;2023-04-21T11:05:35;96674.38;;;19.00;46.87
36630;BME280;36256;42.154;23.002;2023-04-21T11:08:13;96672.38;;;18.90;47.45
36630;BME280;36256;42.154;23.002;2023-04-21T11:10:41;96667.72;;;18.87;47.82
36630;BME280;36256;42.154;23.002;2023-04-21T11:13:08;96669.78;;;18.86;46.33
36630;BME280;36256;42.154;23.002;2023-04-21T11:15:34;96672.16;;;18.76;45.83
36630;BME280;36256;42.154;23.002;2023-04-21T11:18:01;96678.88;;;18.79;46.89
36630;BME280;36256;42.154;23.002;2023-04-21T11:20:28;96669.13;;;18.69;46.03
36630;BME280;36256;42.154;23.002;2023-04-21T11:22:55;96664.47;;;18.66;47.07
36630;BME280;36256;42.154;23.002;2023-04-21T11:25:22;96664.97;;;18.70;46.79
36630;BME280;36256;42.154;23.002;2023-04-21T11:27:52;96669.19;;;18.99;47.51
36630;BME280;36256;42.154;23.002;2023-04-21T11:30:19;96669.00;;;19.32;48.47
36630;BME280;36256;42.154;23.002;2023-04-21T11:32:45;96668.53;;;19.63;47.15
36630;BME280;36256;42.154;23.002;2023-04-21T11:35:13;96667.03;;;19.86;48.57
36630;BME280;36256;42.154;23.002;2023-04-21T11:37:40;96655.09;;;19.93;44.07
36630;BME280;36256;42.154;23.002;2023-04-21T11:40:06;96651.22;;;20.20;44.17
36630;BME280;36256;42.154;23.002;2023-04-21T11:42:34;96632.09;;;20.40;39.61
36630;BME280;36256;42.154;23.002;2023-04-21T11:45:00;96628.72;;;20.60;40.80
36630;BME280;36256;42.154;23.002;2023-04-21T11:47:27;96637.91;;;20.71;45.68
36630;BME280;36256;42.154;23.002;2023-04-21T11:49:54;96633.47;;;20.94;44.96
36630;BME280;36256;42.154;23.002;2023-04-21T11:52:25;96635.94;;;21.03;41.29
36630;BME280;36256;42.154;23.002;2023-04-21T11:57:22;96630.22;;;21.03;39.95
36630;BME280;36256;42.154;23.002;2023-04-21T11:59:50;96635.31;;;21.10;41.29
36630;BME280;36256;42.154;23.002;2023-04-21T12:02:20;96641.81;;;21.11;43.69
36630;BME280;36256;42.154;23.002;2023-04-21T12:04:58;96629.00;;;21.18;40.63
36630;BME280;36256;42.154;23.002;2023-04-21T12:07:25;96622.50;;;21.17;40.38
36630;BME280;36256;42.154;23.002;2023-04-21T12:09:52;96624.47;;;21.09;41.77
36630;BME280;36256;42.154;23.002;2023-04-21T12:12:20;96621.72;;;20.98;41.02
36630;BME280;36256;42.154;23.002;2023-04-21T12:14:48;96623.84;;;21.16;42.18
36630;BME280;36256;42.154;23.002;2023-04-21T12:17:14;96613.00;;;21.28;40.11
36630;BME280;36256;42.154;23.002;2023-04-21T12:19:41;96610.25;;;21.22;39.76
36630;BME280;36256;42.154;23.002;2023-04-21T12:22:08;96617.66;;;21.12;44.06
36630;BME280;36256;42.154;23.002;2023-04-21T12:24:35;96612.44;;;21.16;39.70
36630;BME280;36256;42.154;23.002;2023-04-21T12:27:02;96619.81;;;21.06;42.88
36630;BME280;36256;42.154;23.002;2023-04-21T12:29:29;96620.03;;;21.08;44.49
36630;BME280;36256;42.154;23.002;2023-04-21T12:31:55;96613.97;;;20.80;41.99
36630;BME280;36256;42.154;23.002;2023-04-21T12:34:22;96610.66;;;20.76;42.12
36630;BME280;36256;42.154;23.002;2023-04-21T12:36:48;96601.53;;;20.77;43.49
36630;BME280;36256;42.154;23.002;2023-04-21T12:39:15;96588.91;;;20.73;38.03
36630;BME280;36256;42.154;23.002;2023-04-21T12:41:43;96585.69;;;20.63;40.29
36630;BME280;36256;42.154;23.002;2023-04-21T12:44:10;96577.97;;;20.58;38.49
36630;BME280;36256;42.154;23.002;2023-04-21T12:46:37;96582.13;;;20.76;41.58
36630;BME280;36256;42.154;23.002;2023-04-21T12:49:03;96580.72;;;21.01;39.47
36630;BME280;36256;42.154;23.002;2023-04-21T12:51:32;96581.50;;;21.20;40.20
36630;BME280;36256;42.154;23.002;2023-04-21T12:53:59;96575.75;;;21.07;39.30
36630;BME280;36256;42.154;23.002;2023-04-21T12:56:26;96574.25;;;21.00;37.77
36630;BME280;36256;42.154;23.002;2023-04-21T12:58:52;96567.09;;;20.94;40.20
36630;BME280;36256;42.154;23.002;2023-04-21T13:01:22;96576.47;;;20.89;41.37
36630;BME280;36256;42.154;23.002;2023-04-21T13:03:50;96580.66;;;21.06;40.79